createdAt,value
2019-02-15T00:02:18.436Z,27.20
2019-02-15T00:04:51.128Z,25.67
2019-02-15T00:07:19.406Z,26.63
2019-02-15T00:09:47.312Z,18.90
2019-02-15T00:12:15.027Z,17.77
2019-02-15T00:14:46.273Z,20.47
2019-02-15T00:17:16.107Z,18.70
2019-02-15T00:19:49.191Z,19.97
2019-02-15T00:22:19.323Z,18.90
2019-02-15T00:24:47.184Z,16.70
2019-02-15T00:27:15.239Z,15.87
2019-02-15T00:29:43.241Z,16.77
2019-02-15T00:32:12.357Z,15.60
2019-02-15T00:34:40.367Z,16.50
2019-02-15T00:37:08.685Z,22.60
2019-02-15T00:39:39.013Z,21.00
2019-02-15T00:42:06.820Z,25.57
2019-02-15T00:44:34.481Z,23.70
2019-02-15T00:47:23.110Z,23.67
2019-02-15T00:50:13.185Z,22.47
2019-02-15T00:52:46.924Z,22.37
2019-02-15T00:55:28.211Z,21.83
2019-02-15T00:58:27.269Z,20.53
2019-02-15T01:01:03.174Z,19.83
2019-02-15T01:03:48.710Z,21.13
2019-02-15T01:06:41.757Z,19.27
2019-02-15T01:09:34.283Z,16.43
2019-02-15T01:12:27.499Z,17.57
2019-02-15T01:14:55.183Z,18.20
2019-02-15T01:17:23.064Z,21.43
2019-02-15T01:19:51.335Z,23.93
2019-02-15T01:22:21.865Z,25.17
2019-02-15T01:24:49.930Z,22.10
2019-02-15T01:27:26.896Z,19.70
2019-02-15T01:30:26.521Z,21.87
2019-02-15T01:33:26.289Z,19.10
2019-02-15T01:36:18.895Z,17.63
2019-02-15T01:38:58.434Z,20.53
2019-02-15T01:41:39.383Z,21.00
2019-02-15T01:44:35.453Z,18.40
2019-02-15T01:47:07.935Z,19.00
2019-02-15T01:49:35.661Z,21.70
2019-02-15T01:52:03.512Z,19.37
2019-02-15T01:54:31.574Z,21.80
2019-02-15T01:56:59.442Z,19.83
2019-02-15T01:59:27.636Z,26.90
2019-02-15T02:01:55.414Z,19.57
2019-02-15T02:04:23.262Z,18.40
2019-02-15T02:06:51.142Z,22.27
2019-02-15T02:09:19.464Z,27.03
2019-02-15T02:11:47.262Z,22.00
2019-02-15T02:14:15.179Z,19.20
2019-02-15T02:16:42.843Z,23.77
2019-02-15T02:19:10.915Z,19.03
2019-02-15T02:21:39.123Z,22.53
2019-02-15T02:24:07.448Z,18.37
2019-02-15T02:26:35.508Z,16.63
2019-02-15T02:29:03.368Z,17.53
2019-02-15T02:31:31.993Z,18.43
2019-02-15T02:33:59.892Z,16.60
2019-02-15T02:36:53.638Z,17.50
2019-02-15T02:39:21.470Z,18.90
2019-02-15T02:41:49.115Z,18.90
2019-02-15T02:44:19.474Z,19.27
2019-02-15T02:46:47.840Z,17.33
2019-02-15T02:49:16.288Z,17.47
2019-02-15T02:51:44.140Z,17.83
2019-02-15T02:54:12.142Z,18.63
2019-02-15T02:56:40.029Z,21.43
2019-02-15T02:59:08.000Z,20.23
2019-02-15T03:01:37.220Z,26.30
2019-02-15T03:04:05.440Z,20.80
2019-02-15T03:06:33.446Z,19.93
2019-02-15T03:09:01.397Z,21.13
2019-02-15T03:11:29.480Z,24.00
2019-02-15T03:13:57.553Z,20.07
2019-02-15T03:16:25.511Z,17.97
2019-02-15T03:18:53.344Z,26.07
2019-02-15T03:21:21.018Z,24.17
2019-02-15T03:23:49.670Z,31.67
2019-02-15T03:26:18.062Z,19.63
2019-02-15T03:31:20.777Z,27.00
2019-02-15T03:33:48.581Z,18.90
2019-02-15T03:36:38.577Z,17.50
2019-02-15T03:39:29.760Z,22.43
2019-02-15T03:41:57.942Z,20.90
2019-02-15T03:44:25.710Z,22.23
2019-02-15T03:46:53.572Z,20.50
2019-02-15T03:49:21.615Z,20.37
2019-02-15T03:51:49.496Z,18.03
2019-02-15T03:54:17.595Z,22.50
2019-02-15T03:56:45.641Z,20.07
2019-02-15T03:59:14.011Z,22.93
2019-02-15T04:01:42.843Z,20.17
2019-02-15T04:04:10.781Z,20.17
2019-02-15T04:06:38.808Z,22.63
2019-02-15T04:09:06.930Z,21.23
2019-02-15T04:11:34.776Z,21.80
2019-02-15T04:14:02.541Z,17.40
2019-02-15T04:16:30.297Z,19.83
2019-02-15T04:18:58.244Z,21.83
2019-02-15T04:21:26.586Z,20.37
2019-02-15T04:23:54.339Z,19.73
2019-02-15T04:26:22.073Z,20.63
2019-02-15T04:28:51.054Z,17.50
2019-02-15T04:31:18.979Z,16.87
2019-02-15T04:33:48.495Z,16.33
2019-02-15T04:36:16.533Z,22.27
2019-02-15T04:38:44.495Z,19.47
2019-02-15T04:41:12.515Z,17.73
2019-02-15T04:43:40.523Z,14.97
2019-02-15T04:46:10.113Z,17.03
2019-02-15T04:49:03.256Z,19.83
2019-02-15T04:51:31.449Z,22.67
2019-02-15T04:53:59.786Z,19.40
2019-02-15T04:56:28.075Z,18.07
2019-02-15T04:58:56.035Z,20.97
2019-02-15T05:01:26.556Z,16.47
2019-02-15T05:03:54.866Z,17.37
2019-02-15T05:06:24.454Z,17.67
2019-02-15T05:08:53.657Z,15.73
2019-02-15T05:11:22.021Z,26.63
2019-02-15T05:13:49.863Z,23.10
2019-02-15T05:16:18.018Z,18.30
2019-02-15T05:18:45.998Z,21.47
2019-02-15T05:21:13.982Z,21.90
2019-02-15T05:23:42.090Z,16.10
2019-02-15T05:26:10.427Z,17.80
2019-02-15T05:28:47.371Z,19.13
2019-02-15T05:31:17.190Z,20.90
2019-02-15T05:33:45.038Z,22.33
2019-02-15T05:36:12.960Z,24.50
2019-02-15T05:38:42.005Z,25.63
2019-02-15T05:41:10.148Z,21.40
2019-02-15T05:43:38.271Z,26.57
2019-02-15T05:46:05.998Z,22.83
2019-02-15T05:48:33.851Z,22.33
2019-02-15T05:51:01.573Z,23.03
2019-02-15T05:53:29.470Z,18.20
2019-02-15T05:55:57.196Z,21.20
2019-02-15T05:58:25.076Z,20.33
2019-02-15T06:00:52.850Z,27.83
2019-02-15T06:03:20.871Z,24.60
2019-02-15T06:05:48.817Z,23.27
2019-02-15T06:08:16.645Z,17.60
2019-02-15T06:10:47.352Z,19.10
2019-02-15T06:13:15.747Z,22.17
2019-02-15T06:15:50.839Z,18.97
2019-02-15T06:18:18.960Z,20.00
2019-02-15T06:20:47.031Z,24.60
2019-02-15T06:23:15.042Z,21.57
2019-02-15T06:25:43.601Z,22.30
2019-02-15T06:28:11.533Z,23.47
2019-02-15T06:30:39.475Z,17.90
2019-02-15T06:33:43.431Z,22.23
2019-02-15T06:36:11.752Z,22.07
2019-02-15T06:38:41.219Z,26.93
2019-02-15T06:41:09.171Z,23.00
2019-02-15T06:43:37.164Z,18.40
2019-02-15T06:46:04.967Z,27.73
2019-02-15T06:48:33.003Z,30.27
2019-02-15T06:51:00.803Z,29.97
2019-02-15T06:53:28.617Z,21.77
2019-02-15T06:55:56.524Z,21.17
2019-02-15T06:58:24.636Z,22.17
2019-02-15T07:01:14.889Z,26.37
2019-02-15T07:03:50.453Z,24.53
2019-02-15T07:06:18.241Z,25.50
2019-02-15T07:08:46.055Z,19.33
2019-02-15T07:11:13.617Z,25.23
2019-02-15T07:13:41.108Z,22.37
2019-02-15T07:16:08.563Z,21.50
2019-02-15T07:18:36.302Z,21.50
2019-02-15T07:21:04.075Z,20.30
2019-02-15T07:23:31.552Z,21.30
2019-02-15T07:26:04.454Z,24.50
2019-02-15T07:28:35.312Z,21.53
2019-02-15T07:31:03.048Z,29.20
2019-02-15T07:33:32.293Z,23.20
2019-02-15T07:36:00.203Z,20.27
2019-02-15T07:38:28.004Z,23.37
2019-02-15T07:40:55.830Z,19.93
2019-02-15T07:43:24.003Z,23.20
2019-02-15T07:45:52.632Z,25.03
2019-02-15T07:48:21.248Z,23.60
2019-02-15T07:50:49.094Z,25.67
2019-02-15T07:53:17.032Z,19.77
2019-02-15T07:55:45.005Z,24.00
2019-02-15T07:58:14.207Z,21.83
2019-02-15T08:00:42.129Z,21.50
2019-02-15T08:03:10.080Z,20.17
2019-02-15T08:05:38.072Z,20.20
2019-02-15T08:08:06.170Z,18.17
2019-02-15T08:10:34.104Z,28.47
2019-02-15T08:13:03.702Z,19.60
2019-02-15T08:15:36.202Z,17.87
2019-02-15T08:18:01.107Z,20.90
2019-02-15T08:20:31.983Z,19.90
2019-02-15T08:23:02.790Z,20.27
2019-02-15T08:25:30.695Z,18.60
2019-02-15T08:27:58.726Z,17.70
2019-02-15T08:30:26.703Z,16.90
2019-02-15T08:32:54.653Z,24.20
2019-02-15T08:35:23.053Z,17.30
2019-02-15T08:37:51.008Z,21.00
2019-02-15T08:40:18.840Z,18.23
2019-02-15T08:42:47.066Z,19.10
2019-02-15T08:45:14.982Z,19.10
2019-02-15T08:47:42.843Z,20.47
2019-02-15T08:50:10.499Z,15.27
2019-02-15T08:52:38.520Z,15.57
2019-02-15T08:55:07.143Z,17.67
2019-02-15T08:57:35.009Z,19.70
2019-02-15T09:00:04.135Z,16.53
2019-02-15T09:02:32.050Z,15.33
2019-02-15T09:05:02.106Z,15.70
2019-02-15T09:07:30.026Z,17.77
2019-02-15T09:10:00.871Z,16.83
2019-02-15T09:12:28.615Z,15.50
2019-02-15T09:15:02.732Z,18.03
2019-02-15T09:17:30.758Z,18.20
2019-02-15T09:19:58.769Z,18.80
2019-02-15T09:22:26.893Z,16.30
2019-02-15T09:24:54.983Z,15.07
2019-02-15T09:27:30.522Z,18.23
2019-02-15T09:29:58.553Z,19.73
2019-02-15T09:32:26.470Z,16.50
2019-02-15T09:34:54.548Z,15.77
2019-02-15T09:37:23.938Z,16.40
2019-02-15T09:40:04.155Z,15.33
2019-02-15T09:42:36.185Z,17.00
2019-02-15T09:45:13.675Z,14.50
2019-02-15T09:47:44.573Z,17.97
2019-02-15T09:50:14.964Z,16.40
2019-02-15T09:52:45.302Z,15.23
2019-02-15T09:55:12.991Z,15.63
2019-02-15T09:57:48.884Z,15.80
2019-02-15T10:00:16.639Z,19.90
2019-02-15T10:02:44.775Z,15.40
2019-02-15T10:05:12.623Z,16.17
2019-02-15T10:07:41.089Z,19.50
2019-02-15T10:10:13.295Z,15.83
2019-02-15T10:12:41.435Z,15.30
2019-02-15T10:15:14.607Z,13.07
2019-02-15T10:17:43.211Z,14.73
2019-02-15T10:20:12.820Z,13.37
2019-02-15T10:22:43.319Z,14.90
2019-02-15T10:25:11.793Z,14.67
2019-02-15T10:27:50.590Z,14.97
2019-02-15T10:30:26.811Z,13.27
2019-02-15T10:32:55.238Z,15.13
2019-02-15T10:38:05.080Z,13.33
2019-02-15T10:40:33.844Z,14.83
2019-02-15T10:43:05.270Z,13.00
2019-02-15T10:45:36.142Z,15.03
2019-02-15T10:48:07.216Z,15.77
2019-02-15T10:50:37.251Z,15.43
2019-02-15T10:53:13.477Z,13.90
2019-02-15T10:55:45.978Z,16.47
2019-02-15T10:58:14.994Z,14.97
2019-02-15T11:04:16.268Z,15.07
2019-02-15T11:06:56.361Z,13.47
2019-02-15T11:13:36.868Z,15.17
2019-02-15T11:16:16.020Z,17.00
2019-02-15T11:19:12.705Z,17.40
2019-02-15T11:22:02.808Z,15.27
2019-02-15T11:24:42.497Z,14.73
2019-02-15T11:28:01.711Z,15.50
2019-02-15T11:31:12.522Z,16.40
2019-02-15T11:37:12.288Z,13.60
2019-02-15T11:39:40.806Z,17.67
2019-02-15T11:42:51.681Z,18.10
2019-02-15T12:03:12.796Z,14.67
2019-02-15T12:28:08.713Z,16.37
2019-02-15T12:30:45.052Z,15.53
2019-02-15T12:33:19.310Z,16.10
2019-02-15T12:39:26.949Z,12.20
2019-02-15T12:41:58.785Z,12.07
2019-02-15T12:45:08.593Z,10.30
2019-02-15T12:47:52.151Z,12.50
2019-02-15T12:50:43.340Z,12.20
2019-02-15T12:53:20.744Z,8.20
2019-02-15T13:02:56.045Z,6.53
2019-02-15T13:12:12.139Z,1.53
2019-02-15T13:14:55.516Z,1.40
2019-02-15T13:17:33.009Z,3.70
2019-02-15T13:20:05.383Z,2.70
2019-02-15T13:22:34.576Z,2.60
2019-02-15T13:25:06.410Z,1.97
2019-02-15T13:27:37.274Z,2.00
2019-02-15T13:30:07.845Z,1.90
2019-02-15T13:32:46.287Z,1.63
2019-02-15T13:39:32.617Z,1.50
2019-02-15T13:44:45.262Z,2.20
2019-02-15T13:47:16.746Z,2.67
2019-02-15T13:49:49.362Z,2.33
2019-02-15T13:52:33.534Z,1.97
2019-02-15T13:55:02.804Z,2.20
2019-02-15T13:57:31.942Z,2.23
2019-02-15T13:59:59.881Z,2.33
2019-02-15T14:02:27.732Z,2.10
2019-02-15T14:04:55.922Z,1.50
2019-02-15T14:07:23.650Z,5.73
2019-02-15T14:09:51.737Z,3.07
2019-02-15T14:12:19.980Z,2.50
2019-02-15T14:14:48.159Z,1.93
2019-02-15T14:17:20.108Z,3.30
2019-02-15T14:20:16.016Z,3.13
2019-02-15T14:23:06.229Z,2.77
2019-02-15T14:25:35.541Z,2.37
2019-02-15T14:28:04.102Z,2.80
2019-02-15T14:30:33.298Z,3.40
2019-02-15T14:33:01.314Z,2.80
2019-02-15T14:35:29.115Z,2.10
2019-02-15T14:37:56.742Z,2.60
2019-02-15T14:40:24.892Z,2.43
2019-02-15T14:42:53.345Z,3.13
2019-02-15T14:45:38.534Z,2.47
2019-02-15T14:48:07.469Z,2.37
2019-02-15T14:50:35.727Z,3.07
2019-02-15T14:53:05.769Z,3.00
2019-02-15T14:55:33.931Z,1.70
2019-02-15T14:58:02.274Z,2.00
2019-02-15T15:00:32.058Z,2.70
2019-02-15T15:03:29.635Z,2.53
2019-02-15T15:06:10.374Z,2.50
2019-02-15T15:08:38.769Z,2.30
2019-02-15T15:11:06.715Z,3.30
2019-02-15T15:13:35.080Z,3.10
2019-02-15T15:16:02.826Z,2.13
2019-02-15T15:18:30.936Z,4.37
2019-02-15T15:20:58.894Z,2.70
2019-02-15T15:23:26.603Z,3.17
2019-02-15T15:25:54.531Z,3.23
2019-02-15T15:28:23.151Z,3.10
2019-02-15T15:30:53.075Z,2.90
2019-02-15T15:33:29.813Z,2.80
2019-02-15T15:35:58.821Z,3.00
2019-02-15T15:38:28.846Z,5.70
2019-02-15T15:40:57.205Z,5.10
2019-02-15T15:43:31.315Z,4.37
2019-02-15T15:46:01.963Z,3.87
2019-02-15T15:48:31.194Z,5.33
2019-02-15T15:51:05.434Z,4.77
2019-02-15T15:53:33.429Z,3.97
2019-02-15T15:56:05.756Z,3.03
2019-02-15T15:58:35.852Z,4.70
2019-02-15T16:01:03.448Z,4.53
2019-02-15T16:03:31.038Z,4.07
2019-02-15T16:06:00.180Z,3.97
2019-02-15T16:08:31.616Z,4.53
2019-02-15T16:10:59.335Z,2.77
2019-02-15T16:13:32.188Z,4.40
2019-02-15T16:15:59.724Z,4.33
2019-02-15T16:18:34.184Z,4.63
2019-02-15T16:20:56.643Z,3.50
2019-02-15T16:23:24.162Z,4.37
2019-02-15T16:25:51.713Z,4.40
2019-02-15T16:28:19.232Z,5.20
2019-02-15T16:30:46.721Z,5.30
2019-02-15T16:33:14.272Z,6.70
2019-02-15T16:35:41.844Z,7.60
2019-02-15T16:38:09.446Z,14.33
2019-02-15T16:40:37.254Z,11.03
2019-02-15T16:43:05.057Z,7.47
2019-02-15T16:45:32.663Z,11.00
2019-02-15T16:48:00.143Z,12.23
2019-02-15T16:50:29.122Z,7.53
2019-02-15T16:52:58.248Z,8.40
2019-02-15T16:55:25.845Z,7.00
2019-02-15T16:57:53.501Z,9.93
2019-02-15T17:00:21.070Z,12.47
2019-02-15T17:02:50.024Z,10.40
2019-02-15T17:05:17.656Z,8.50
2019-02-15T17:07:45.190Z,7.60
2019-02-15T17:10:13.016Z,8.17
2019-02-15T17:12:40.499Z,13.07
2019-02-15T17:15:08.825Z,11.60
2019-02-15T17:17:36.357Z,10.70
2019-02-15T17:20:04.577Z,8.50
2019-02-15T17:22:46.544Z,10.93
2019-02-15T17:25:17.650Z,10.93
2019-02-15T17:27:55.801Z,7.77
2019-02-15T17:30:27.658Z,8.50
2019-02-15T17:33:09.696Z,10.30
2019-02-15T17:35:41.629Z,9.83
2019-02-15T17:38:16.545Z,18.63
2019-02-15T17:40:46.114Z,15.07
2019-02-15T17:43:22.109Z,16.10
2019-02-15T17:45:49.837Z,16.07
2019-02-15T17:48:17.606Z,11.17
2019-02-15T17:50:45.409Z,12.60
2019-02-15T17:53:12.970Z,16.63
2019-02-15T17:55:40.915Z,39.90
2019-02-15T17:58:08.499Z,23.93
2019-02-15T18:00:36.396Z,26.57
2019-02-15T18:03:03.931Z,19.47
2019-02-15T18:05:31.484Z,21.40
2019-02-15T18:07:59.090Z,38.13
2019-02-15T18:10:26.975Z,42.57
2019-02-15T18:12:54.725Z,31.60
2019-02-15T18:15:22.800Z,32.53
2019-02-15T18:17:50.744Z,26.93
2019-02-15T18:20:18.277Z,20.70
2019-02-15T18:22:47.359Z,23.47
2019-02-15T18:25:16.969Z,21.73
2019-02-15T18:27:44.696Z,21.90
2019-02-15T18:30:12.304Z,26.50
2019-02-15T18:32:39.948Z,23.23
2019-02-15T18:35:12.193Z,22.07
2019-02-15T18:37:39.853Z,20.03
2019-02-15T18:40:23.712Z,22.13
2019-02-15T18:42:54.611Z,16.80
2019-02-15T18:45:30.087Z,22.03
2019-02-15T18:47:57.720Z,17.60
2019-02-15T18:50:26.596Z,15.40
2019-02-15T18:52:54.988Z,17.10
2019-02-15T18:55:22.836Z,20.43
2019-02-15T18:57:50.468Z,15.07
2019-02-15T19:00:21.530Z,19.10
2019-02-15T19:02:49.521Z,21.73
2019-02-15T19:05:17.014Z,33.10
2019-02-15T19:07:44.675Z,27.27
2019-02-15T19:10:14.948Z,27.50
2019-02-15T19:12:43.650Z,21.83
2019-02-15T19:15:13.126Z,30.73
2019-02-15T19:17:43.754Z,22.13
2019-02-15T19:20:12.688Z,24.17
2019-02-15T19:22:40.378Z,20.13
2019-02-15T19:25:09.392Z,20.70
2019-02-15T19:27:37.389Z,16.20
2019-02-15T19:30:07.678Z,19.83
2019-02-15T19:36:01.125Z,14.30
2019-02-15T19:45:51.434Z,17.03
2019-02-15T19:48:19.595Z,17.47
2019-02-15T19:50:50.432Z,15.73
2019-02-15T19:53:20.639Z,19.20
2019-02-15T19:55:50.364Z,22.43
2019-02-15T19:58:20.756Z,14.90
2019-02-15T20:00:49.214Z,21.30
2019-02-15T20:03:57.347Z,17.97
2019-02-15T20:09:49.517Z,20.20
2019-02-15T20:12:21.071Z,17.87
2019-02-15T20:14:51.720Z,17.13
2019-02-15T20:17:27.440Z,17.97
2019-02-15T20:19:55.816Z,21.00
2019-02-15T20:22:26.334Z,16.07
2019-02-15T20:25:36.221Z,18.77
2019-02-15T20:28:14.822Z,15.77
2019-02-15T20:31:06.400Z,16.13
2019-02-15T20:33:57.656Z,17.20
2019-02-15T20:36:32.114Z,19.47
2019-02-15T20:39:09.765Z,18.10
2019-02-15T20:41:50.554Z,15.00
2019-02-15T20:44:25.146Z,17.00
2019-02-15T20:46:53.657Z,17.67
2019-02-15T20:49:31.138Z,17.37
2019-02-15T20:52:03.693Z,19.43
2019-02-15T20:54:49.551Z,17.60
2019-02-15T20:57:16.961Z,15.27
2019-02-15T20:59:46.844Z,22.30
2019-02-15T21:02:24.995Z,14.60
2019-02-15T21:04:59.268Z,15.50
2019-02-15T21:07:32.188Z,17.77
2019-02-15T21:10:03.812Z,17.83
2019-02-15T21:12:32.896Z,23.40
2019-02-15T21:15:10.761Z,15.20
2019-02-15T21:17:39.249Z,17.10
2019-02-15T21:20:09.573Z,17.20
2019-02-15T21:22:37.966Z,18.17
2019-02-15T21:25:09.369Z,16.67
2019-02-15T21:27:39.387Z,19.70
2019-02-15T21:30:15.030Z,16.23
2019-02-15T21:32:44.302Z,15.57
2019-02-15T21:35:14.569Z,17.70
2019-02-15T21:37:44.736Z,16.67
2019-02-15T21:40:14.016Z,14.20
2019-02-15T21:43:02.216Z,16.47
2019-02-15T21:45:32.033Z,16.57
2019-02-15T21:48:00.194Z,18.43
2019-02-15T21:50:28.995Z,16.67
2019-02-15T21:53:07.936Z,16.83
2019-02-15T21:55:36.951Z,17.70
2019-02-15T21:58:10.546Z,20.20
2019-02-15T22:00:42.072Z,16.83
2019-02-15T22:03:12.926Z,19.03
2019-02-15T22:05:40.771Z,22.20
2019-02-15T22:08:14.037Z,16.57
2019-02-15T22:10:42.365Z,15.43
2019-02-15T22:13:10.597Z,15.83
2019-02-15T22:15:38.320Z,17.80
2019-02-15T22:18:08.398Z,22.83
2019-02-15T22:20:35.932Z,18.40
2019-02-15T22:23:08.347Z,16.43
2019-02-15T22:26:04.959Z,18.60
2019-02-15T22:28:36.966Z,20.93
2019-02-15T22:31:08.188Z,16.80
2019-02-15T22:33:41.303Z,17.70
2019-02-15T22:36:15.094Z,19.87
2019-02-15T22:38:48.303Z,19.97
2019-02-15T22:41:25.369Z,17.73
2019-02-15T22:44:31.744Z,17.50
2019-02-15T22:50:08.370Z,18.33
2019-02-15T22:52:48.852Z,18.53
2019-02-15T22:55:22.098Z,18.73
2019-02-15T22:58:04.714Z,19.00
2019-02-15T23:00:53.604Z,17.70
2019-02-15T23:03:52.468Z,19.20
2019-02-15T23:07:05.393Z,20.20
2019-02-15T23:09:34.289Z,23.10
2019-02-15T23:12:06.885Z,22.50
2019-02-15T23:14:40.431Z,18.60
2019-02-15T23:17:11.301Z,21.57
2019-02-15T23:19:44.623Z,15.57
2019-02-15T23:22:16.118Z,17.47
2019-02-15T23:24:50.103Z,21.50
2019-02-15T23:27:27.418Z,22.27
2019-02-15T23:30:00.515Z,18.80
2019-02-15T23:32:29.179Z,21.17
2019-02-15T23:35:00.204Z,17.23
2019-02-15T23:37:28.731Z,19.03
2019-02-15T23:40:03.360Z,20.90
2019-02-15T23:42:31.502Z,21.83
2019-02-15T23:45:10.291Z,23.53
2019-02-15T23:47:41.720Z,17.50
2019-02-15T23:50:12.940Z,20.90
2019-02-15T23:52:41.208Z,17.17
2019-02-15T23:55:09.715Z,16.50
2019-02-15T23:57:37.945Z,15.60
